Terminal Aerodrome Forecast
Issued by NWS

Home | Current Version | Previous Version | Text Only | Print | Product List | Glossary On
Versions: 1 2 3 4 5 6 7 8 9 10 11 12 13 14 15
000
FTUS43 KILX 222335
TAFBMI
TAF
KBMI 222335Z 2300/2324 21006KT P6SM BKN250
     FM230400 20007KT P6SM BKN120
     FM230900 20009KT P6SM BKN080
     FM231200 21011KT P6SM SCT100
     FM231500 22012KT P6SM SKC=

USA.gov is the U.S. government's official web portal to all federal, state and local government web resources and services.